createdAt,value
2024-05-09T00:00:30.274Z,96960.34
2024-05-09T00:03:02.391Z,96955.97
2024-05-09T00:05:29.011Z,96957.06
2024-05-09T00:07:55.636Z,96948.44
2024-05-09T00:10:29.071Z,96957.06
2024-05-09T00:13:01.897Z,96953.69
2024-05-09T00:15:28.374Z,96958.84
2024-05-09T00:17:54.911Z,96945.69
2024-05-09T00:20:28.103Z,96957.88
2024-05-09T00:23:00.011Z,96949.34
2024-05-09T00:25:26.525Z,96942.59
2024-05-09T00:27:53.000Z,96954.47
2024-05-09T00:30:27.939Z,96952.13
2024-05-09T00:32:59.778Z,96941.50
2024-05-09T00:35:26.514Z,96942.50
2024-05-09T00:37:53.090Z,96944.41
2024-05-09T00:40:30.672Z,96940.94
2024-05-09T00:43:04.623Z,96937.84
2024-05-09T00:45:31.083Z,96940.22
2024-05-09T00:47:57.791Z,96942.41
2024-05-09T00:50:29.982Z,96940.34
2024-05-09T00:53:02.516Z,96940.94
2024-05-09T00:55:29.073Z,96941.91
2024-05-09T00:57:55.525Z,96939.28
2024-05-09T01:00:27.407Z,96934.72
2024-05-09T01:03:02.223Z,96932.72
2024-05-09T01:05:28.876Z,96943.31
2024-05-09T01:07:55.430Z,96938.25
2024-05-09T01:10:28.018Z,96946.81
2024-05-09T01:13:00.377Z,96937.19
2024-05-09T01:15:26.933Z,96943.06
2024-05-09T01:17:53.543Z,96929.84
2024-05-09T01:20:27.749Z,96931.22
2024-05-09T01:23:03.734Z,96929.75
2024-05-09T01:25:30.234Z,96938.59
2024-05-09T01:27:56.690Z,96939.97
2024-05-09T01:30:31.283Z,96934.78
2024-05-09T01:33:00.953Z,96937.06
2024-05-09T01:35:27.816Z,96943.97
2024-05-09T01:37:54.383Z,96940.53
2024-05-09T01:40:28.423Z,96950.97
2024-05-09T01:43:00.412Z,96949.31
2024-05-09T01:45:26.858Z,96945.34
2024-05-09T01:47:53.469Z,96945.03
2024-05-09T01:50:28.995Z,96944.56
2024-05-09T01:53:03.071Z,96948.16
2024-05-09T01:55:29.625Z,96938.38
2024-05-09T01:57:56.084Z,96938.03
2024-05-09T02:00:30.810Z,96945.19
2024-05-09T02:03:04.902Z,96938.63
2024-05-09T02:05:31.627Z,96941.34
2024-05-09T02:07:58.186Z,96937.41
2024-05-09T02:10:31.745Z,96934.38
2024-05-09T02:12:59.354Z,96941.41
2024-05-09T02:15:25.816Z,96939.66
2024-05-09T02:17:52.566Z,96943.00
2024-05-09T02:20:29.749Z,96940.38
2024-05-09T02:23:01.711Z,96945.97
2024-05-09T02:25:28.208Z,96942.88
2024-05-09T02:27:54.683Z,96941.88
2024-05-09T02:30:29.951Z,96938.28
2024-05-09T02:33:04.804Z,96941.88
2024-05-09T02:35:31.534Z,96936.53
2024-05-09T02:37:58.090Z,96939.41
2024-05-09T02:40:33.254Z,96942.69
2024-05-09T02:43:03.641Z,96941.00
2024-05-09T02:45:30.140Z,96939.97
2024-05-09T02:47:56.783Z,96938.53
2024-05-09T02:50:30.234Z,96941.88
2024-05-09T02:53:03.749Z,96937.19
2024-05-09T02:55:30.282Z,96935.25
2024-05-09T02:57:56.756Z,96930.59
2024-05-09T03:00:29.779Z,96929.91
2024-05-09T03:03:04.206Z,96927.56
2024-05-09T03:05:31.012Z,96931.66
2024-05-09T03:07:57.602Z,96931.56
2024-05-09T03:10:28.504Z,96923.34
2024-05-09T03:12:55.711Z,96925.63
2024-05-09T03:15:22.397Z,96913.38
2024-05-09T03:17:49.053Z,96924.75
2024-05-09T03:20:23.219Z,96925.44
2024-05-09T03:22:52.710Z,96941.38
2024-05-09T03:25:20.523Z,96941.38
2024-05-09T03:27:47.026Z,96940.16
2024-05-09T03:30:25.907Z,96934.72
2024-05-09T03:33:00.050Z,96939.19
2024-05-09T03:35:26.825Z,96934.03
2024-05-09T03:37:53.412Z,96940.88
2024-05-09T03:40:23.812Z,96940.94
2024-05-09T03:42:53.093Z,96949.50
2024-05-09T03:45:19.607Z,96941.56
2024-05-09T03:47:46.448Z,96952.66
2024-05-09T03:50:21.930Z,96947.56
2024-05-09T03:52:52.432Z,96950.44
2024-05-09T03:55:18.990Z,96948.31
2024-05-09T03:57:45.495Z,96954.28
2024-05-09T04:00:17.923Z,96957.00
2024-05-09T04:02:51.975Z,96963.38
2024-05-09T04:05:18.560Z,96955.88
2024-05-09T04:07:45.101Z,96958.13
2024-05-09T04:10:20.917Z,96961.13
2024-05-09T04:12:54.224Z,96957.59
2024-05-09T04:15:20.747Z,96966.53
2024-05-09T04:17:47.367Z,96961.09
2024-05-09T04:20:24.201Z,96964.56
2024-05-09T04:22:59.753Z,96973.63
2024-05-09T04:25:26.245Z,96971.09
2024-05-09T04:27:52.729Z,96968.59
2024-05-09T04:30:26.284Z,96954.06
2024-05-09T04:33:01.412Z,96957.59
2024-05-09T04:35:28.098Z,96951.22
2024-05-09T04:37:54.761Z,96953.31
2024-05-09T04:40:28.338Z,96952.47
2024-05-09T04:42:59.963Z,96947.66
2024-05-09T04:45:26.426Z,96946.75
2024-05-09T04:47:53.216Z,96954.69
2024-05-09T04:50:29.321Z,96954.50
2024-05-09T04:53:02.142Z,96953.56
2024-05-09T04:55:28.664Z,96953.56
2024-05-09T04:57:55.117Z,96958.28
2024-05-09T05:00:28.856Z,96958.81
2024-05-09T05:03:02.056Z,96951.59
2024-05-09T05:05:28.722Z,96948.94
2024-05-09T05:07:55.305Z,96948.00
2024-05-09T05:10:29.442Z,96943.13
2024-05-09T05:13:01.743Z,96943.47
2024-05-09T05:15:28.208Z,96938.47
2024-05-09T05:17:54.793Z,96948.09
2024-05-09T05:20:27.773Z,96942.94
2024-05-09T05:22:59.597Z,96949.22
2024-05-09T05:25:26.210Z,96948.75
2024-05-09T05:27:52.735Z,96960.44
2024-05-09T05:30:24.995Z,96954.47
2024-05-09T05:32:55.530Z,96973.16
2024-05-09T05:35:22.157Z,96970.91
2024-05-09T05:37:48.653Z,96966.28
2024-05-09T05:40:25.021Z,96979.56
2024-05-09T05:42:58.769Z,96979.03
2024-05-09T05:45:25.251Z,96979.50
2024-05-09T05:47:51.829Z,96969.63
2024-05-09T05:50:27.248Z,96973.03
2024-05-09T05:52:59.449Z,96972.59
2024-05-09T05:55:25.931Z,96978.16
2024-05-09T05:57:52.386Z,96981.06
2024-05-09T06:00:28.998Z,96974.44
2024-05-09T06:03:01.703Z,96975.47
2024-05-09T06:05:28.353Z,96973.81
2024-05-09T06:07:54.861Z,96972.84
2024-05-09T06:10:25.786Z,96978.81
2024-05-09T06:12:56.712Z,96970.25
2024-05-09T06:15:23.162Z,96981.44
2024-05-09T06:17:49.776Z,96972.00
2024-05-09T06:20:23.424Z,96971.69
2024-05-09T06:22:54.064Z,96967.81
2024-05-09T06:25:20.570Z,96967.09
2024-05-09T06:27:47.044Z,96960.81
2024-05-09T06:30:24.900Z,96961.88
2024-05-09T06:32:56.211Z,96953.28
2024-05-09T06:35:22.773Z,96948.56
2024-05-09T06:37:49.328Z,96941.38
2024-05-09T06:40:21.214Z,96942.94
2024-05-09T06:42:51.756Z,96933.47
2024-05-09T06:45:18.227Z,96943.81
2024-05-09T06:47:44.831Z,96952.03
2024-05-09T06:50:19.705Z,96953.06
2024-05-09T06:52:50.113Z,96956.50
2024-05-09T06:55:16.586Z,96954.06
2024-05-09T06:57:43.218Z,96950.09
2024-05-09T07:00:15.510Z,96959.91
2024-05-09T07:02:45.557Z,96977.69
2024-05-09T07:05:12.221Z,96972.72
2024-05-09T07:07:38.771Z,96977.78
2024-05-09T07:10:07.774Z,96969.56
2024-05-09T07:12:36.414Z,96981.84
2024-05-09T07:15:03.031Z,96980.75
2024-05-09T07:17:29.832Z,96987.59
2024-05-09T07:19:56.423Z,96983.41
2024-05-09T07:22:22.930Z,96983.66
2024-05-09T07:24:49.375Z,96976.00
2024-05-09T07:27:15.828Z,96975.88
2024-05-09T07:29:42.346Z,96975.16
2024-05-09T07:32:08.886Z,96973.59
2024-05-09T07:34:35.474Z,96969.41
2024-05-09T07:37:02.139Z,96967.28
2024-05-09T07:39:28.743Z,96960.72
2024-05-09T07:41:55.190Z,96965.63
2024-05-09T07:44:21.721Z,96979.44
2024-05-09T07:47:48.686Z,96980.50
2024-05-09T07:53:27.135Z,96965.97
2024-05-09T07:54:50.557Z,96960.53
2024-05-09T07:57:17.356Z,96960.34
2024-05-09T07:59:43.888Z,96957.63
2024-05-09T08:02:10.587Z,96961.66
2024-05-09T08:04:37.242Z,96957.88
2024-05-09T08:07:03.876Z,96961.59
2024-05-09T08:09:30.380Z,96956.88
2024-05-09T08:11:56.915Z,96954.78
2024-05-09T08:14:23.400Z,96957.75
2024-05-09T08:16:49.897Z,96951.38
2024-05-09T08:19:16.486Z,96939.97
2024-05-09T08:21:43.025Z,96931.88
2024-05-09T08:24:09.532Z,96938.59
2024-05-09T08:26:36.024Z,96928.94
2024-05-09T08:29:02.475Z,96926.16
2024-05-09T08:31:29.080Z,96937.81
2024-05-09T08:33:55.804Z,96951.63
2024-05-09T08:36:22.370Z,96929.31
2024-05-09T08:38:48.832Z,96930.19
2024-05-09T08:41:15.371Z,96918.66
2024-05-09T08:43:42.171Z,96914.91
2024-05-09T08:46:08.789Z,96925.72
2024-05-09T08:48:35.664Z,96922.44
2024-05-09T08:51:02.327Z,96928.13
2024-05-09T08:53:28.800Z,96920.91
2024-05-09T08:55:55.269Z,96930.88
2024-05-09T08:58:21.772Z,96932.16
2024-05-09T09:00:48.887Z,96918.19
2024-05-09T09:03:16.050Z,96917.81
2024-05-09T09:05:43.676Z,96930.22
2024-05-09T09:08:10.221Z,96930.66
2024-05-09T09:10:36.836Z,96927.31
2024-05-09T09:13:03.441Z,96916.84
2024-05-09T09:15:29.988Z,96924.34
2024-05-09T09:17:56.508Z,96909.94
2024-05-09T09:20:29.136Z,96932.25
2024-05-09T09:23:01.878Z,96883.59
2024-05-09T09:25:28.323Z,96904.81
2024-05-09T09:27:54.856Z,96902.59
2024-05-09T09:30:34.422Z,96894.28
2024-05-09T09:33:04.153Z,96894.44
2024-05-09T09:35:30.719Z,96880.94
2024-05-09T09:37:57.183Z,96878.25
2024-05-09T09:40:31.033Z,96881.69
2024-05-09T09:42:59.125Z,96874.06
2024-05-09T09:45:25.597Z,96865.69
2024-05-09T09:47:52.261Z,96873.22
2024-05-09T09:50:24.103Z,96881.56
2024-05-09T09:52:58.055Z,96894.00
2024-05-09T09:55:24.610Z,96890.34
2024-05-09T09:57:51.116Z,96880.78
2024-05-09T10:00:24.435Z,96856.03
2024-05-09T10:02:57.037Z,96868.91
2024-05-09T10:05:23.735Z,96875.03
2024-05-09T10:07:50.423Z,96854.66
2024-05-09T10:10:22.944Z,96853.16
2024-05-09T10:12:53.914Z,96866.50
2024-05-09T10:15:20.485Z,96853.31
2024-05-09T10:17:47.061Z,96844.34
2024-05-09T10:20:21.346Z,96829.97
2024-05-09T10:22:51.407Z,96830.31
2024-05-09T10:25:17.990Z,96828.50
2024-05-09T10:27:44.544Z,96851.28
2024-05-09T10:30:17.709Z,96846.44
2024-05-09T10:32:48.075Z,96868.97
2024-05-09T10:35:14.612Z,96837.56
2024-05-09T10:37:41.073Z,96857.25
2024-05-09T10:40:14.017Z,96834.22
2024-05-09T10:42:43.822Z,96824.34
2024-05-09T10:45:10.298Z,96826.66
2024-05-09T10:47:36.866Z,96821.56
2024-05-09T10:50:07.713Z,96853.59
2024-05-09T10:52:36.593Z,96842.63
2024-05-09T10:55:05.515Z,96842.78
2024-05-09T10:57:32.366Z,96847.75
2024-05-09T10:59:58.844Z,96825.06
2024-05-09T11:02:25.587Z,96842.44
2024-05-09T11:04:52.342Z,96852.69
2024-05-09T11:07:19.024Z,96849.75
2024-05-09T11:09:45.631Z,96828.03
2024-05-09T11:12:12.227Z,96824.41
2024-05-09T11:14:38.727Z,96825.72
2024-05-09T11:17:05.229Z,96830.31
2024-05-09T11:19:31.785Z,96818.47
2024-05-09T11:21:58.413Z,96829.47
2024-05-09T11:24:25.050Z,96826.34
2024-05-09T11:26:51.581Z,96835.72
2024-05-09T11:29:19.557Z,96828.50
2024-05-09T11:31:46.485Z,96835.38
2024-05-09T11:34:13.097Z,96830.69
2024-05-09T11:36:39.722Z,96840.84
2024-05-09T11:39:06.231Z,96826.13
2024-05-09T11:41:32.706Z,96837.66
2024-05-09T11:43:59.250Z,96841.06
2024-05-09T11:46:25.880Z,96821.22
2024-05-09T11:48:52.665Z,96847.66
2024-05-09T11:51:19.223Z,96833.22
2024-05-09T11:53:45.692Z,96856.59
2024-05-09T11:56:12.202Z,96832.38
2024-05-09T11:58:38.683Z,96832.84
2024-05-09T12:01:05.288Z,96837.78
2024-05-09T12:03:32.047Z,96813.13
2024-05-09T12:05:59.007Z,96821.75
2024-05-09T12:08:25.601Z,96817.50
2024-05-09T12:10:52.218Z,96825.69
2024-05-09T12:13:18.905Z,96837.31
2024-05-09T12:15:45.555Z,96822.53
2024-05-09T12:18:12.098Z,96810.94
2024-05-09T12:20:40.054Z,96799.88
2024-05-09T12:23:07.077Z,96800.81
2024-05-09T12:25:33.835Z,96796.63
2024-05-09T12:28:00.623Z,96830.19
2024-05-09T12:30:35.566Z,96791.63
2024-05-09T12:33:05.531Z,96797.75
2024-05-09T12:35:32.201Z,96816.22
2024-05-09T12:37:58.693Z,96807.97
2024-05-09T12:40:34.288Z,96819.06
2024-05-09T12:43:03.883Z,96824.41
2024-05-09T12:45:30.454Z,96830.22
2024-05-09T12:47:57.078Z,96806.78
2024-05-09T12:50:29.949Z,96804.72
2024-05-09T12:52:59.401Z,96810.22
2024-05-09T12:55:25.931Z,96796.88
2024-05-09T12:57:52.537Z,96813.00
2024-05-09T13:00:24.094Z,96803.50
2024-05-09T13:02:57.690Z,96810.22
2024-05-09T13:05:24.594Z,96817.56
2024-05-09T13:07:51.236Z,96811.00
2024-05-09T13:10:25.565Z,96820.06
2024-05-09T13:12:58.053Z,96806.25
2024-05-09T13:15:24.543Z,96796.34
2024-05-09T13:17:51.011Z,96801.16
2024-05-09T13:20:26.069Z,96797.00
2024-05-09T13:22:58.422Z,96794.72
2024-05-09T13:25:24.909Z,96788.25
2024-05-09T13:27:51.425Z,96794.66
2024-05-09T13:30:26.074Z,96794.63
2024-05-09T13:33:00.114Z,96805.16
2024-05-09T13:35:26.615Z,96772.38
2024-05-09T13:37:53.073Z,96786.84
2024-05-09T13:40:27.258Z,96774.00
2024-05-09T13:42:59.669Z,96792.22
2024-05-09T13:45:26.190Z,96788.63
2024-05-09T13:47:52.789Z,96801.63
2024-05-09T13:50:28.018Z,96781.22
2024-05-09T13:53:00.237Z,96785.47
2024-05-09T13:55:26.710Z,96759.28
2024-05-09T13:57:53.201Z,96770.09
2024-05-09T14:00:31.824Z,96766.16
2024-05-09T14:03:06.272Z,96769.91
2024-05-09T14:05:33.189Z,96764.59
2024-05-09T14:07:59.873Z,96773.06
2024-05-09T14:10:31.002Z,96771.47
2024-05-09T14:12:58.562Z,96772.13
2024-05-09T14:15:25.064Z,96767.09
2024-05-09T14:17:51.560Z,96747.97
2024-05-09T14:20:28.192Z,96757.19
2024-05-09T14:22:57.972Z,96744.53
2024-05-09T14:25:24.506Z,96738.41
2024-05-09T14:27:51.137Z,96744.47
2024-05-09T14:30:25.810Z,96722.53
2024-05-09T14:32:57.791Z,96734.34
2024-05-09T14:35:24.329Z,96733.53
2024-05-09T14:37:50.798Z,96748.91
2024-05-09T14:40:30.653Z,96739.50
2024-05-09T14:43:03.915Z,96734.75
2024-05-09T14:45:30.540Z,96743.09
2024-05-09T14:47:57.223Z,96739.84
2024-05-09T14:50:32.320Z,96738.25
2024-05-09T14:53:02.905Z,96743.66
2024-05-09T14:55:29.446Z,96741.69
2024-05-09T14:57:55.978Z,96730.34
2024-05-09T15:00:28.677Z,96722.19
2024-05-09T15:02:59.652Z,96731.25
2024-05-09T15:05:26.310Z,96722.63
2024-05-09T15:07:52.821Z,96709.69
2024-05-09T15:10:26.914Z,96724.38
2024-05-09T15:13:00.455Z,96718.78
2024-05-09T15:15:27.005Z,96716.69
2024-05-09T15:17:53.593Z,96715.91
2024-05-09T15:20:27.769Z,96701.00
2024-05-09T15:23:00.648Z,96696.03
2024-05-09T15:25:27.130Z,96695.72
2024-05-09T15:27:53.717Z,96696.72
2024-05-09T15:30:28.208Z,96686.69
2024-05-09T15:32:57.932Z,96693.31
2024-05-09T15:35:24.464Z,96684.22
2024-05-09T15:37:50.967Z,96687.91
2024-05-09T15:40:26.259Z,96687.53
2024-05-09T15:43:01.961Z,96687.25
2024-05-09T15:45:28.550Z,96677.41
2024-05-09T15:47:55.079Z,96698.19
2024-05-09T15:50:31.983Z,96693.00
2024-05-09T15:53:03.822Z,96696.31
2024-05-09T15:55:30.320Z,96676.47
2024-05-09T15:57:56.841Z,96679.56
2024-05-09T16:00:29.103Z,96668.41
2024-05-09T16:03:03.207Z,96688.19
2024-05-09T16:05:29.819Z,96672.50
2024-05-09T16:07:56.348Z,96670.97
2024-05-09T16:10:26.143Z,96666.22
2024-05-09T16:12:58.637Z,96667.28
2024-05-09T16:15:25.180Z,96676.47
2024-05-09T16:17:51.805Z,96671.44
2024-05-09T16:20:28.990Z,96672.84
2024-05-09T16:23:03.268Z,96670.31
2024-05-09T16:25:29.727Z,96669.78
2024-05-09T16:27:56.217Z,96657.56
2024-05-09T16:30:31.417Z,96657.63
2024-05-09T16:33:01.664Z,96659.44
2024-05-09T16:35:28.292Z,96666.16
2024-05-09T16:37:54.755Z,96656.78
2024-05-09T16:40:29.669Z,96658.06
2024-05-09T16:43:02.984Z,96658.78
2024-05-09T16:45:29.545Z,96651.94
2024-05-09T16:47:56.112Z,96651.03
2024-05-09T16:50:29.199Z,96647.84
2024-05-09T16:52:59.158Z,96644.72
2024-05-09T16:55:25.759Z,96652.53
2024-05-09T16:57:52.323Z,96647.56
2024-05-09T17:00:30.738Z,96645.69
2024-05-09T17:03:05.446Z,96649.09
2024-05-09T17:05:32.106Z,96651.19
2024-05-09T17:07:58.626Z,96647.66
2024-05-09T17:10:31.730Z,96654.22
2024-05-09T17:13:00.463Z,96641.09
2024-05-09T17:15:27.011Z,96649.41
2024-05-09T17:17:53.507Z,96647.97
2024-05-09T17:20:29.313Z,96640.47
2024-05-09T17:23:00.250Z,96652.31
2024-05-09T17:25:26.811Z,96652.16
2024-05-09T17:27:53.401Z,96646.34
2024-05-09T17:30:28.629Z,96656.50
2024-05-09T17:33:00.863Z,96652.47
2024-05-09T17:35:27.410Z,96647.59
2024-05-09T17:37:53.886Z,96657.53
2024-05-09T17:40:30.047Z,96653.50
2024-05-09T17:42:59.935Z,96647.19
2024-05-09T17:45:26.454Z,96653.25
2024-05-09T17:47:53.136Z,96655.06
2024-05-09T17:50:27.342Z,96657.53
2024-05-09T17:53:00.172Z,96662.69
2024-05-09T17:55:26.765Z,96660.66
2024-05-09T17:57:53.355Z,96651.53
2024-05-09T18:00:28.862Z,96650.25
2024-05-09T18:03:03.290Z,96658.16
2024-05-09T18:05:30.009Z,96651.41
2024-05-09T18:07:56.590Z,96648.22
2024-05-09T18:10:29.783Z,96653.59
2024-05-09T18:13:02.250Z,96652.66
2024-05-09T18:15:28.832Z,96652.94
2024-05-09T18:17:55.370Z,96655.91
2024-05-09T18:20:32.563Z,96657.66
2024-05-09T18:23:07.279Z,96656.84
2024-05-09T18:25:33.766Z,96651.69
2024-05-09T18:28:00.274Z,96651.09
2024-05-09T18:30:32.480Z,96650.50
2024-05-09T18:33:01.894Z,96648.94
2024-05-09T18:35:28.555Z,96650.97
2024-05-09T18:37:55.025Z,96640.94
2024-05-09T18:40:31.124Z,96645.63
2024-05-09T18:43:01.569Z,96635.59
2024-05-09T18:45:28.088Z,96643.09
2024-05-09T18:47:54.615Z,96654.28
2024-05-09T18:50:31.616Z,96657.38
2024-05-09T18:53:02.138Z,96653.28
2024-05-09T18:55:28.626Z,96651.53
2024-05-09T18:57:55.213Z,96650.09
2024-05-09T19:00:31.486Z,96654.78
2024-05-09T19:03:02.586Z,96638.28
2024-05-09T19:05:29.388Z,96643.44
2024-05-09T19:07:55.962Z,96648.94
2024-05-09T19:10:26.104Z,96639.84
2024-05-09T19:12:55.555Z,96639.19
2024-05-09T19:15:22.031Z,96644.41
2024-05-09T19:17:48.575Z,96652.59
2024-05-09T19:20:24.883Z,96646.13
2024-05-09T19:22:55.296Z,96652.88
2024-05-09T19:25:21.832Z,96655.06
2024-05-09T19:27:48.366Z,96662.25
2024-05-09T19:30:24.943Z,96659.31
2024-05-09T19:32:59.937Z,96664.34
2024-05-09T19:35:26.443Z,96669.16
2024-05-09T19:37:52.899Z,96664.28
2024-05-09T19:40:25.143Z,96672.13
2024-05-09T19:42:57.434Z,96674.16
2024-05-09T19:45:23.943Z,96677.44
2024-05-09T19:47:50.483Z,96677.28
2024-05-09T19:50:23.196Z,96679.66
2024-05-09T19:52:58.127Z,96685.59
2024-05-09T19:55:24.598Z,96680.56
2024-05-09T19:57:51.075Z,96674.59
2024-05-09T20:00:22.344Z,96680.69
2024-05-09T20:02:55.753Z,96677.47
2024-05-09T20:05:22.522Z,96680.59
2024-05-09T20:07:49.010Z,96687.53
2024-05-09T20:10:23.301Z,96696.69
2024-05-09T20:12:52.851Z,96701.50
2024-05-09T20:15:19.347Z,96697.25
2024-05-09T20:17:45.928Z,96694.09
2024-05-09T20:20:23.442Z,96690.94
2024-05-09T20:22:55.226Z,96695.47
2024-05-09T20:25:21.750Z,96689.06
2024-05-09T20:27:48.311Z,96686.72
2024-05-09T20:30:21.348Z,96699.41
2024-05-09T20:32:54.615Z,96700.63
2024-05-09T20:35:21.220Z,96698.00
2024-05-09T20:37:47.725Z,96706.94
2024-05-09T20:40:21.211Z,96703.34
2024-05-09T20:42:52.197Z,96712.63
2024-05-09T20:45:18.674Z,96703.88
2024-05-09T20:47:45.268Z,96713.75
2024-05-09T20:50:20.572Z,96711.69
2024-05-09T20:52:55.144Z,96705.13
2024-05-09T20:55:21.737Z,96707.94
2024-05-09T20:57:48.293Z,96707.00
2024-05-09T21:00:18.864Z,96698.09
2024-05-09T21:02:49.139Z,96698.41
2024-05-09T21:05:15.875Z,96692.59
2024-05-09T21:07:42.421Z,96692.59
2024-05-09T21:10:15.561Z,96683.53
2024-05-09T21:12:46.106Z,96676.78
2024-05-09T21:15:12.635Z,96674.91
2024-05-09T21:17:39.243Z,96685.56
2024-05-09T21:20:11.424Z,96675.03
2024-05-09T21:22:40.948Z,96676.66
2024-05-09T21:25:07.443Z,96689.94
2024-05-09T21:27:34.038Z,96688.22
2024-05-09T21:30:00.611Z,96693.09
2024-05-09T21:32:27.166Z,96700.28
2024-05-09T21:34:53.739Z,96697.94
2024-05-09T21:37:20.271Z,96693.56
2024-05-09T21:39:46.760Z,96699.50
2024-05-09T21:42:13.265Z,96683.72
2024-05-09T21:44:39.746Z,96692.91
2024-05-09T21:47:06.309Z,96695.22
2024-05-09T21:49:32.957Z,96693.50
2024-05-09T21:51:59.547Z,96703.38
2024-05-09T21:54:26.064Z,96703.84
2024-05-09T21:56:52.546Z,96704.44
2024-05-09T21:59:19.027Z,96699.75
2024-05-09T22:01:45.557Z,96696.31
2024-05-09T22:04:12.223Z,96709.31
2024-05-09T22:06:38.835Z,96697.56
2024-05-09T22:09:05.364Z,96697.84
2024-05-09T22:11:32.016Z,96691.00
2024-05-09T22:13:58.499Z,96695.41
2024-05-09T22:16:25.121Z,96695.41
2024-05-09T22:18:51.963Z,96699.25
2024-05-09T22:21:18.535Z,96698.34
2024-05-09T22:23:45.006Z,96698.94
2024-05-09T22:26:11.496Z,96696.59
2024-05-09T22:28:37.956Z,96694.44
2024-05-09T22:31:04.488Z,96691.78
2024-05-09T22:33:31.362Z,96691.81
2024-05-09T22:35:57.997Z,96694.75
2024-05-09T22:38:24.470Z,96694.94
2024-05-09T22:40:50.978Z,96691.47
2024-05-09T22:43:18.031Z,96698.19
2024-05-09T22:45:44.926Z,96700.69
2024-05-09T22:48:11.561Z,96696.00
2024-05-09T22:50:38.156Z,96701.28
2024-05-09T22:53:04.667Z,96695.47
2024-05-09T22:55:31.124Z,96699.72
2024-05-09T22:57:57.690Z,96693.16
2024-05-09T23:02:53.722Z,96696.59
2024-05-09T23:05:20.378Z,96690.19
2024-05-09T23:07:46.927Z,96692.41
2024-05-09T23:10:20.795Z,96692.72
2024-05-09T23:12:51.426Z,96684.56
2024-05-09T23:15:17.909Z,96690.31
2024-05-09T23:17:44.680Z,96689.03
2024-05-09T23:20:11.808Z,96687.69
2024-05-09T23:22:40.919Z,96690.50
2024-05-09T23:25:07.425Z,96688.16
2024-05-09T23:27:34.006Z,96690.00
2024-05-09T23:30:00.471Z,96695.16
2024-05-09T23:32:27.025Z,96690.78
2024-05-09T23:34:53.625Z,96686.25
2024-05-09T23:37:20.157Z,96687.22
2024-05-09T23:39:46.644Z,96685.28
2024-05-09T23:42:13.147Z,96681.97
2024-05-09T23:44:39.597Z,96683.09
2024-05-09T23:47:08.473Z,96690.63
2024-05-09T23:49:36.697Z,96688.75
2024-05-09T23:52:03.302Z,96677.91
2024-05-09T23:54:29.772Z,96686.59
2024-05-09T23:56:56.252Z,96677.00
2024-05-09T23:59:22.724Z,96684.66
